createdAt,value
2017-10-26T12:28:08.635Z,10.00
2017-10-26T12:30:36.070Z,9.90
2017-10-26T12:33:03.494Z,9.10
2017-10-26T12:35:31.694Z,9.20
2017-10-26T12:37:59.122Z,11.17
2017-10-26T12:40:26.550Z,9.43
2017-10-26T12:42:54.778Z,9.50
2017-10-26T12:45:22.993Z,9.70
2017-10-26T12:47:50.432Z,10.30
2017-10-26T12:50:17.850Z,9.73
2017-10-26T12:52:45.354Z,9.77
2017-10-26T12:55:12.785Z,10.07
2017-10-26T12:57:40.222Z,9.20
2017-10-26T13:00:07.649Z,11.33
2017-10-26T13:02:35.158Z,9.70
2017-10-26T13:05:02.578Z,8.97
2017-10-26T13:07:30.014Z,10.27
2017-10-26T13:09:58.215Z,9.53
2017-10-26T13:12:25.638Z,9.80
2017-10-26T13:14:53.853Z,9.43
2017-10-26T13:17:21.269Z,10.10
2017-10-26T13:19:49.478Z,9.23
2017-10-26T13:22:16.906Z,8.43
2017-10-26T13:24:44.342Z,8.50
2017-10-26T13:27:11.758Z,8.70
2017-10-26T13:29:39.198Z,9.27
2017-10-26T13:32:08.323Z,7.73
2017-10-26T13:34:35.802Z,7.80
2017-10-26T13:37:03.269Z,6.80
2017-10-26T13:39:30.694Z,6.73
2017-10-26T13:41:58.139Z,7.47
2017-10-26T13:44:26.383Z,7.97
2017-10-26T13:46:53.818Z,7.57
2017-10-26T13:49:21.244Z,6.53
2017-10-26T13:51:50.095Z,8.20
2017-10-26T13:54:17.632Z,7.20
2017-10-26T13:56:45.938Z,7.10
2017-10-26T13:59:13.386Z,6.70
2017-10-26T14:01:40.834Z,6.80
2017-10-26T14:04:09.262Z,6.70
2017-10-26T14:06:36.719Z,6.87
2017-10-26T14:09:04.134Z,7.17
2017-10-26T14:11:32.373Z,6.67
2017-10-26T14:14:00.575Z,5.77
2017-10-26T14:16:28.817Z,7.00
2017-10-26T14:18:56.249Z,4.83
2017-10-26T14:21:23.673Z,6.00
2017-10-26T14:23:51.874Z,5.27
2017-10-26T14:26:20.098Z,5.60
2017-10-26T14:28:48.566Z,5.53
2017-10-26T14:31:15.978Z,6.00
2017-10-26T14:33:44.179Z,5.97
2017-10-26T14:36:11.597Z,5.43
2017-10-26T14:38:39.837Z,5.40
2017-10-26T14:41:07.273Z,5.77
2017-10-26T14:43:34.698Z,5.90
2017-10-26T14:46:02.735Z,6.47
2017-10-26T14:48:30.162Z,4.93
2017-10-26T14:50:57.597Z,5.17
2017-10-26T14:53:25.023Z,5.70
2017-10-26T14:55:52.501Z,6.03
2017-10-26T14:58:20.534Z,5.83
2017-10-26T15:00:48.000Z,5.20
2017-10-26T15:03:15.420Z,5.43
2017-10-26T15:05:43.620Z,4.93
2017-10-26T15:08:11.042Z,6.57
2017-10-26T15:10:38.481Z,5.57
2017-10-26T15:13:05.915Z,5.33
2017-10-26T15:15:33.348Z,6.17
2017-10-26T15:18:01.530Z,4.83
2017-10-26T15:20:29.795Z,5.37
2017-10-26T15:22:57.998Z,6.00
2017-10-26T15:25:25.421Z,5.37
2017-10-26T15:27:52.857Z,5.20
2017-10-26T15:30:20.326Z,6.50
2017-10-26T15:32:47.762Z,5.30
2017-10-26T15:35:15.185Z,4.83
2017-10-26T15:37:43.382Z,4.87
2017-10-26T15:40:10.818Z,5.20
2017-10-26T15:42:39.030Z,5.10
2017-10-26T15:45:06.447Z,5.53
2017-10-26T15:47:33.910Z,5.33
2017-10-26T15:50:01.380Z,5.63
2017-10-26T15:52:28.796Z,5.10
2017-10-26T15:54:56.223Z,5.30
2017-10-26T15:57:23.708Z,5.40
2017-10-26T15:59:51.125Z,5.03
2017-10-26T16:02:19.317Z,5.60
2017-10-26T16:04:47.515Z,4.97
2017-10-26T16:07:14.958Z,5.40
2017-10-26T16:09:43.134Z,5.43
2017-10-26T16:12:10.557Z,6.10
2017-10-26T16:14:37.985Z,4.50
2017-10-26T16:17:05.417Z,5.87
2017-10-26T16:19:33.610Z,4.10
2017-10-26T16:22:01.071Z,4.90
2017-10-26T16:24:29.750Z,5.10
2017-10-26T16:26:57.178Z,5.13
2017-10-26T16:29:24.613Z,5.83
2017-10-26T16:31:52.043Z,6.43
2017-10-26T16:34:20.198Z,4.43
2017-10-26T16:36:48.403Z,6.07
2017-10-26T16:39:15.827Z,5.43
2017-10-26T16:41:44.030Z,5.67
2017-10-26T16:44:11.485Z,5.23
2017-10-26T16:46:38.922Z,5.17
2017-10-26T16:49:06.361Z,5.67
2017-10-26T16:51:33.782Z,5.67
2017-10-26T16:54:01.206Z,6.53
2017-10-26T16:56:28.647Z,5.60
2017-10-26T16:58:56.066Z,5.03
2017-10-26T17:01:23.499Z,5.90
2017-10-26T17:03:51.689Z,4.53
2017-10-26T17:06:19.151Z,5.30
2017-10-26T17:08:47.325Z,5.03
2017-10-26T17:11:14.763Z,5.60
2017-10-26T17:13:42.191Z,6.27
2017-10-26T17:16:09.631Z,5.80
2017-10-26T17:18:37.190Z,5.20
2017-10-26T17:21:04.593Z,5.70
2017-10-26T17:23:32.072Z,5.50
2017-10-26T17:25:59.498Z,5.50
2017-10-26T17:28:26.940Z,6.37
2017-10-26T17:30:54.361Z,4.63
2017-10-26T17:33:22.563Z,5.60
2017-10-26T17:35:50.004Z,5.93
2017-10-26T17:38:17.437Z,6.43
2017-10-26T17:40:45.548Z,6.40
2017-10-26T17:43:14.744Z,5.90
2017-10-26T17:45:42.158Z,6.13
2017-10-26T17:48:09.617Z,6.37
2017-10-26T17:50:37.059Z,5.20
2017-10-26T17:53:04.482Z,5.53
2017-10-26T17:55:32.726Z,5.20
2017-10-26T17:58:00.262Z,5.53
2017-10-26T18:00:27.683Z,5.90
2017-10-26T18:02:55.879Z,5.87
2017-10-26T18:05:23.367Z,6.67
2017-10-26T18:07:50.826Z,8.07
2017-10-26T18:10:18.250Z,7.23
2017-10-26T18:12:46.561Z,6.17
2017-10-26T18:15:13.969Z,6.70
2017-10-26T18:17:41.403Z,6.70
2017-10-26T18:20:08.846Z,5.90
2017-10-26T18:22:36.266Z,5.97
2017-10-26T18:25:04.470Z,6.60
2017-10-26T18:27:31.898Z,6.30
2017-10-26T18:29:59.331Z,7.07
2017-10-26T18:32:26.754Z,7.50
2017-10-26T18:34:54.184Z,7.03
2017-10-26T18:37:21.618Z,6.83
2017-10-26T18:39:49.047Z,6.63
2017-10-26T18:42:16.489Z,6.80
2017-10-26T18:44:43.914Z,6.20
2017-10-26T18:47:11.341Z,7.53
2017-10-26T18:49:38.775Z,6.97
2017-10-26T18:52:06.218Z,7.27
2017-10-26T18:54:34.401Z,7.57
2017-10-26T18:57:01.859Z,7.43
2017-10-26T18:59:30.067Z,6.10
2017-10-26T19:01:57.520Z,6.53
2017-10-26T19:04:24.946Z,7.30
2017-10-26T19:06:52.374Z,6.80
2017-10-26T19:09:19.823Z,7.73
2017-10-26T19:11:47.278Z,7.40
2017-10-26T19:14:14.715Z,6.07
2017-10-26T19:16:42.911Z,7.50
2017-10-26T19:19:10.359Z,7.30
2017-10-26T19:21:38.568Z,6.17
2017-10-26T19:24:05.984Z,7.03
2017-10-26T19:26:34.170Z,7.03
2017-10-26T19:29:01.598Z,6.43
2017-10-26T19:31:29.022Z,6.17
2017-10-26T19:33:56.450Z,5.40
2017-10-26T19:36:23.894Z,6.60
2017-10-26T19:38:52.133Z,5.17
2017-10-26T19:41:19.538Z,6.60
2017-10-26T19:43:47.853Z,4.60
2017-10-26T19:46:15.270Z,5.30
2017-10-26T19:48:42.702Z,5.27
2017-10-26T19:51:10.155Z,5.00
2017-10-26T19:53:37.619Z,6.00
2017-10-26T19:56:05.030Z,4.90
2017-10-26T19:58:33.221Z,5.23
2017-10-26T20:01:00.653Z,4.93
2017-10-26T20:03:28.114Z,4.43
2017-10-26T20:05:55.582Z,3.60
2017-10-26T20:08:23.779Z,3.50
2017-10-26T20:10:52.043Z,3.23
2017-10-26T20:13:20.227Z,3.50
2017-10-26T20:15:48.506Z,3.60
2017-10-26T20:18:15.944Z,3.27
2017-10-26T20:20:43.364Z,2.87
2017-10-26T20:23:10.817Z,3.23
2017-10-26T20:25:39.040Z,3.17
2017-10-26T20:28:06.459Z,3.33
2017-10-26T20:30:33.885Z,4.33
2017-10-26T20:33:02.085Z,4.40
2017-10-26T20:35:29.571Z,5.53
2017-10-26T20:37:56.981Z,3.80
2017-10-26T20:40:25.198Z,4.27
2017-10-26T20:42:53.325Z,4.20
2017-10-26T20:45:20.776Z,3.93
2017-10-26T20:47:48.198Z,4.03
2017-10-26T20:50:21.350Z,4.40
2017-10-26T20:52:55.942Z,3.80
2017-10-26T20:55:29.038Z,4.60
2017-10-26T20:58:02.198Z,3.90
2017-10-26T21:00:35.351Z,4.23
2017-10-26T21:03:09.278Z,3.73
2017-10-26T21:05:42.311Z,3.37
2017-10-26T21:08:09.746Z,3.33
2017-10-26T21:10:42.765Z,3.50
2017-10-26T21:13:16.019Z,2.20
2017-10-26T21:15:44.229Z,3.30
2017-10-26T21:18:11.655Z,4.30
2017-10-26T21:20:39.090Z,4.00
2017-10-26T21:23:07.282Z,3.93
2017-10-26T21:25:34.714Z,3.97
2017-10-26T21:28:02.134Z,3.53
2017-10-26T21:30:29.570Z,4.33
2017-10-26T21:32:56.990Z,4.00
2017-10-26T21:35:24.429Z,4.00
2017-10-26T21:37:51.899Z,4.73
2017-10-26T21:40:19.323Z,4.40
2017-10-26T21:42:46.745Z,3.97
2017-10-26T21:45:14.950Z,4.60
2017-10-26T21:47:42.388Z,3.57
2017-10-26T21:50:09.797Z,4.13
2017-10-26T21:52:37.225Z,5.47
2017-10-26T21:55:05.443Z,5.27
2017-10-26T21:57:32.874Z,5.70
2017-10-26T22:00:00.309Z,5.20
2017-10-26T22:02:27.726Z,4.20
2017-10-26T22:04:55.145Z,3.83
2017-10-26T22:07:23.546Z,5.47
2017-10-26T22:09:50.993Z,4.90
2017-10-26T22:12:18.448Z,5.23
2017-10-26T22:14:46.635Z,5.50
2017-10-26T22:17:14.828Z,4.57
2017-10-26T22:19:42.289Z,4.60
2017-10-26T22:22:10.546Z,3.70
2017-10-26T22:24:38.729Z,4.50
2017-10-26T22:27:06.165Z,5.33
2017-10-26T22:29:33.595Z,4.50
2017-10-26T22:32:01.091Z,4.97
2017-10-26T22:34:29.282Z,5.20
2017-10-26T22:36:57.474Z,5.53
2017-10-26T22:39:24.915Z,4.80
2017-10-26T22:41:52.846Z,3.87
2017-10-26T22:44:20.294Z,4.67
2017-10-26T22:46:47.698Z,4.83
2017-10-26T22:49:15.129Z,4.10
2017-10-26T22:51:42.612Z,4.83
2017-10-26T22:54:10.037Z,4.50
2017-10-26T22:56:37.462Z,3.87
2017-10-26T22:59:05.653Z,4.50
2017-10-26T23:01:33.138Z,4.20
2017-10-26T23:04:00.565Z,4.43
2017-10-26T23:06:28.006Z,3.70
2017-10-26T23:08:55.445Z,4.00
2017-10-26T23:11:22.962Z,5.07
2017-10-26T23:13:50.394Z,3.30
2017-10-26T23:16:18.593Z,3.57
2017-10-26T23:18:46.015Z,4.17
2017-10-26T23:21:13.502Z,3.70
2017-10-26T23:23:41.686Z,3.13
2017-10-26T23:26:09.887Z,4.83
2017-10-26T23:28:37.352Z,4.03
2017-10-26T23:31:04.781Z,3.80
2017-10-26T23:33:32.990Z,4.10
2017-10-26T23:36:00.448Z,4.70
2017-10-26T23:38:27.880Z,3.67
2017-10-26T23:40:55.302Z,4.00
2017-10-26T23:43:22.779Z,3.40
2017-10-26T23:45:50.191Z,3.03
2017-10-26T23:48:17.613Z,5.33
2017-10-26T23:50:45.085Z,3.67
2017-10-26T23:53:13.266Z,3.07
2017-10-26T23:55:41.449Z,4.07
2017-10-26T23:58:08.881Z,3.53
